sensor_id;sensor_type;location;lat;lon;timestamp;temperature;humidity
814;DHT22;389;48.710;9.392;2022-08-06T00:00:33;21.40;91.90
814;DHT22;389;48.710;9.392;2022-08-06T00:02:59;21.40;91.90
814;DHT22;389;48.710;9.392;2022-08-06T00:05:24;21.30;91.90
814;DHT22;389;48.710;9.392;2022-08-06T00:07:51;21.30;91.90
814;DHT22;389;48.710;9.392;2022-08-06T00:10:18;21.30;91.80
814;DHT22;389;48.710;9.392;2022-08-06T00:12:45;21.30;91.90
814;DHT22;389;48.710;9.392;2022-08-06T00:15:11;21.40;91.80
814;DHT22;389;48.710;9.392;2022-08-06T00:17:37;21.30;91.70
814;DHT22;389;48.710;9.392;2022-08-06T00:20:05;21.20;91.50
814;DHT22;389;48.710;9.392;2022-08-06T00:22:31;21.30;91.60
814;DHT22;389;48.710;9.392;2022-08-06T00:24:57;21.20;91.30
814;DHT22;389;48.710;9.392;2022-08-06T00:27:23;21.20;91.10
814;DHT22;389;48.710;9.392;2022-08-06T00:29:48;21.20;90.50
814;DHT22;389;48.710;9.392;2022-08-06T00:32:15;21.20;90.10
814;DHT22;389;48.710;9.392;2022-08-06T00:34:41;21.10;90.10
814;DHT22;389;48.710;9.392;2022-08-06T00:37:07;21.10;90.10
814;DHT22;389;48.710;9.392;2022-08-06T00:39:32;21.20;90.40
814;DHT22;389;48.710;9.392;2022-08-06T00:41:58;21.10;88.40
814;DHT22;389;48.710;9.392;2022-08-06T00:44:23;21.10;87.60
814;DHT22;389;48.710;9.392;2022-08-06T00:46:49;21.10;87.60
814;DHT22;389;48.710;9.392;2022-08-06T00:49:15;21.10;87.10
814;DHT22;389;48.710;9.392;2022-08-06T00:51:41;21.10;87.20
814;DHT22;389;48.710;9.392;2022-08-06T00:54:06;21.10;87.00
814;DHT22;389;48.710;9.392;2022-08-06T00:56:32;21.10;86.70
814;DHT22;389;48.710;9.392;2022-08-06T00:58:58;21.00;86.00
814;DHT22;389;48.710;9.392;2022-08-06T01:01:24;21.10;86.10
814;DHT22;389;48.710;9.392;2022-08-06T01:03:50;21.10;86.20
814;DHT22;389;48.710;9.392;2022-08-06T01:06:16;21.10;85.50
814;DHT22;389;48.710;9.392;2022-08-06T01:08:42;21.10;85.50
814;DHT22;389;48.710;9.392;2022-08-06T01:11:08;21.00;85.70
814;DHT22;389;48.710;9.392;2022-08-06T01:13:34;20.90;85.50
814;DHT22;389;48.710;9.392;2022-08-06T01:18:39;20.90;86.10
814;DHT22;389;48.710;9.392;2022-08-06T01:27:33;20.90;86.90
814;DHT22;389;48.710;9.392;2022-08-06T01:30:10;20.90;87.50
814;DHT22;389;48.710;9.392;2022-08-06T01:33:06;21.00;87.60
814;DHT22;389;48.710;9.392;2022-08-06T01:35:39;21.00;87.90
814;DHT22;389;48.710;9.392;2022-08-06T01:40:36;21.00;87.90
814;DHT22;389;48.710;9.392;2022-08-06T01:43:06;20.90;87.60
814;DHT22;389;48.710;9.392;2022-08-06T01:45:33;20.90;88.20
814;DHT22;389;48.710;9.392;2022-08-06T01:48:03;20.80;87.90
814;DHT22;389;48.710;9.392;2022-08-06T01:50:39;20.80;87.80
814;DHT22;389;48.710;9.392;2022-08-06T01:53:08;20.90;85.30
814;DHT22;389;48.710;9.392;2022-08-06T01:55:41;20.80;85.40
814;DHT22;389;48.710;9.392;2022-08-06T01:58:08;20.80;84.60
814;DHT22;389;48.710;9.392;2022-08-06T02:00:38;20.80;84.70
814;DHT22;389;48.710;9.392;2022-08-06T02:03:13;20.80;84.30
814;DHT22;389;48.710;9.392;2022-08-06T02:05:40;20.80;84.50
814;DHT22;389;48.710;9.392;2022-08-06T02:08:08;20.70;84.40
814;DHT22;389;48.710;9.392;2022-08-06T02:10:37;20.70;84.20
814;DHT22;389;48.710;9.392;2022-08-06T02:13:03;20.70;83.50
814;DHT22;389;48.710;9.392;2022-08-06T02:15:32;20.80;83.70
814;DHT22;389;48.710;9.392;2022-08-06T02:18:02;20.70;84.20
814;DHT22;389;48.710;9.392;2022-08-06T02:20:43;20.70;84.10
814;DHT22;389;48.710;9.392;2022-08-06T02:23:14;20.70;84.30
814;DHT22;389;48.710;9.392;2022-08-06T02:25:42;20.70;84.50
814;DHT22;389;48.710;9.392;2022-08-06T02:28:09;20.60;84.50
814;DHT22;389;48.710;9.392;2022-08-06T02:30:40;20.60;85.30
814;DHT22;389;48.710;9.392;2022-08-06T02:33:07;20.60;84.70
814;DHT22;389;48.710;9.392;2022-08-06T02:35:43;20.50;84.40
814;DHT22;389;48.710;9.392;2022-08-06T02:38:16;20.50;84.40
814;DHT22;389;48.710;9.392;2022-08-06T02:41:11;20.50;84.40
814;DHT22;389;48.710;9.392;2022-08-06T02:43:40;20.50;84.50
814;DHT22;389;48.710;9.392;2022-08-06T02:46:26;20.60;84.40
814;DHT22;389;48.710;9.392;2022-08-06T02:48:58;20.50;84.40
814;DHT22;389;48.710;9.392;2022-08-06T02:51:34;20.50;83.90
814;DHT22;389;48.710;9.392;2022-08-06T02:54:17;20.50;84.10
814;DHT22;389;48.710;9.392;2022-08-06T02:56:45;20.40;84.20
814;DHT22;389;48.710;9.392;2022-08-06T02:59:20;20.40;84.70
814;DHT22;389;48.710;9.392;2022-08-06T03:01:53;20.40;85.00
814;DHT22;389;48.710;9.392;2022-08-06T03:04:21;20.40;84.90
814;DHT22;389;48.710;9.392;2022-08-06T03:06:49;20.30;84.40
814;DHT22;389;48.710;9.392;2022-08-06T03:09:17;20.30;84.30
814;DHT22;389;48.710;9.392;2022-08-06T03:11:44;20.30;84.40
814;DHT22;389;48.710;9.392;2022-08-06T03:14:13;20.40;84.70
814;DHT22;389;48.710;9.392;2022-08-06T03:16:40;20.30;84.70
814;DHT22;389;48.710;9.392;2022-08-06T03:19:07;20.20;84.70
814;DHT22;389;48.710;9.392;2022-08-06T03:21:34;20.20;84.90
814;DHT22;389;48.710;9.392;2022-08-06T03:24:01;20.20;84.90
814;DHT22;389;48.710;9.392;2022-08-06T03:26:29;20.20;84.90
814;DHT22;389;48.710;9.392;2022-08-06T03:28:58;20.20;84.90
814;DHT22;389;48.710;9.392;2022-08-06T03:31:24;20.10;85.20
814;DHT22;389;48.710;9.392;2022-08-06T03:33:52;20.10;85.40
814;DHT22;389;48.710;9.392;2022-08-06T03:36:19;20.00;85.30
814;DHT22;389;48.710;9.392;2022-08-06T03:38:53;20.00;85.00
814;DHT22;389;48.710;9.392;2022-08-06T03:41:20;20.00;85.50
814;DHT22;389;48.710;9.392;2022-08-06T03:43:45;20.00;85.20
814;DHT22;389;48.710;9.392;2022-08-06T03:46:13;20.00;85.70
814;DHT22;389;48.710;9.392;2022-08-06T03:48:43;20.00;85.70
814;DHT22;389;48.710;9.392;2022-08-06T03:51:16;19.90;85.30
814;DHT22;389;48.710;9.392;2022-08-06T03:53:45;19.90;85.60
814;DHT22;389;48.710;9.392;2022-08-06T03:56:16;19.90;85.60
814;DHT22;389;48.710;9.392;2022-08-06T03:58:43;19.90;85.40
814;DHT22;389;48.710;9.392;2022-08-06T04:01:12;19.90;85.60
814;DHT22;389;48.710;9.392;2022-08-06T04:03:44;19.90;86.00
814;DHT22;389;48.710;9.392;2022-08-06T04:06:11;19.80;85.80
814;DHT22;389;48.710;9.392;2022-08-06T04:08:38;19.80;86.10
814;DHT22;389;48.710;9.392;2022-08-06T04:11:05;19.80;86.40
814;DHT22;389;48.710;9.392;2022-08-06T04:13:31;19.80;86.30
814;DHT22;389;48.710;9.392;2022-08-06T04:15:57;19.70;86.90
814;DHT22;389;48.710;9.392;2022-08-06T04:18:29;19.80;86.60
814;DHT22;389;48.710;9.392;2022-08-06T04:21:19;19.70;86.50
814;DHT22;389;48.710;9.392;2022-08-06T04:23:45;19.60;86.40
814;DHT22;389;48.710;9.392;2022-08-06T04:26:12;19.50;86.60
814;DHT22;389;48.710;9.392;2022-08-06T04:28:41;19.50;86.90
814;DHT22;389;48.710;9.392;2022-08-06T04:31:08;19.40;87.00
814;DHT22;389;48.710;9.392;2022-08-06T04:33:34;19.40;87.20
814;DHT22;389;48.710;9.392;2022-08-06T04:36:02;19.40;87.10
814;DHT22;389;48.710;9.392;2022-08-06T04:38:31;19.30;87.00
814;DHT22;389;48.710;9.392;2022-08-06T04:40:57;19.30;87.30
814;DHT22;389;48.710;9.392;2022-08-06T04:43:23;19.30;87.40
814;DHT22;389;48.710;9.392;2022-08-06T04:45:49;19.30;87.60
814;DHT22;389;48.710;9.392;2022-08-06T04:48:15;19.40;87.80
814;DHT22;389;48.710;9.392;2022-08-06T04:50:41;19.50;87.90
814;DHT22;389;48.710;9.392;2022-08-06T04:53:12;19.40;87.50
814;DHT22;389;48.710;9.392;2022-08-06T04:55:38;19.50;87.50
814;DHT22;389;48.710;9.392;2022-08-06T04:58:06;19.60;87.20
814;DHT22;389;48.710;9.392;2022-08-06T05:00:33;19.60;86.90
814;DHT22;389;48.710;9.392;2022-08-06T05:02:59;19.60;86.80
814;DHT22;389;48.710;9.392;2022-08-06T05:05:25;19.70;86.80
814;DHT22;389;48.710;9.392;2022-08-06T05:07:53;19.70;86.80
814;DHT22;389;48.710;9.392;2022-08-06T05:10:26;19.70;86.80
814;DHT22;389;48.710;9.392;2022-08-06T05:12:56;19.80;86.90
814;DHT22;389;48.710;9.392;2022-08-06T05:18:01;19.80;86.60
814;DHT22;389;48.710;9.392;2022-08-06T05:20:33;19.90;86.80
814;DHT22;389;48.710;9.392;2022-08-06T05:23:07;19.80;87.00
814;DHT22;389;48.710;9.392;2022-08-06T05:25:36;19.90;87.10
814;DHT22;389;48.710;9.392;2022-08-06T05:28:05;19.90;86.80
814;DHT22;389;48.710;9.392;2022-08-06T05:30:31;19.90;87.10
814;DHT22;389;48.710;9.392;2022-08-06T05:32:56;20.00;87.30
814;DHT22;389;48.710;9.392;2022-08-06T05:35:23;20.10;86.40
814;DHT22;389;48.710;9.392;2022-08-06T05:37:49;20.30;86.50
814;DHT22;389;48.710;9.392;2022-08-06T05:40:15;20.50;86.30
814;DHT22;389;48.710;9.392;2022-08-06T05:42:40;20.60;85.30
814;DHT22;389;48.710;9.392;2022-08-06T05:45:10;20.70;85.20
814;DHT22;389;48.710;9.392;2022-08-06T05:47:36;20.80;84.90
814;DHT22;389;48.710;9.392;2022-08-06T05:50:08;20.80;84.70
814;DHT22;389;48.710;9.392;2022-08-06T05:52:45;20.80;84.30
814;DHT22;389;48.710;9.392;2022-08-06T05:58:00;20.80;84.60
814;DHT22;389;48.710;9.392;2022-08-06T06:00:31;20.80;84.60
814;DHT22;389;48.710;9.392;2022-08-06T06:02:59;20.90;84.50
814;DHT22;389;48.710;9.392;2022-08-06T06:05:26;20.90;84.50
814;DHT22;389;48.710;9.392;2022-08-06T06:07:51;21.00;84.40
814;DHT22;389;48.710;9.392;2022-08-06T06:10:21;21.10;84.30
814;DHT22;389;48.710;9.392;2022-08-06T06:12:48;21.30;83.60
814;DHT22;389;48.710;9.392;2022-08-06T06:15:16;21.40;83.40
814;DHT22;389;48.710;9.392;2022-08-06T06:52:43;22.30;80.80
814;DHT22;389;48.710;9.392;2022-08-06T07:05:20;22.70;79.50
814;DHT22;389;48.710;9.392;2022-08-06T07:07:46;22.70;79.50
814;DHT22;389;48.710;9.392;2022-08-06T07:10:14;22.80;79.30
814;DHT22;389;48.710;9.392;2022-08-06T07:12:43;22.90;78.80
814;DHT22;389;48.710;9.392;2022-08-06T07:15:11;23.00;79.40
814;DHT22;389;48.710;9.392;2022-08-06T07:17:38;23.00;78.80
814;DHT22;389;48.710;9.392;2022-08-06T07:20:08;22.90;78.60
814;DHT22;389;48.710;9.392;2022-08-06T07:22:38;22.90;79.10
814;DHT22;389;48.710;9.392;2022-08-06T07:25:06;22.80;78.10
814;DHT22;389;48.710;9.392;2022-08-06T07:27:44;22.80;78.90
814;DHT22;389;48.710;9.392;2022-08-06T07:30:17;22.90;79.30
814;DHT22;389;48.710;9.392;2022-08-06T07:32:44;23.00;79.20
814;DHT22;389;48.710;9.392;2022-08-06T07:35:11;23.10;78.60
814;DHT22;389;48.710;9.392;2022-08-06T07:37:41;23.20;78.10
814;DHT22;389;48.710;9.392;2022-08-06T07:40:19;23.20;77.30
814;DHT22;389;48.710;9.392;2022-08-06T07:42:52;23.10;77.40
814;DHT22;389;48.710;9.392;2022-08-06T07:45:20;23.00;77.80
814;DHT22;389;48.710;9.392;2022-08-06T07:47:48;23.00;77.80
814;DHT22;389;48.710;9.392;2022-08-06T07:50:14;23.00;78.00
814;DHT22;389;48.710;9.392;2022-08-06T07:52:41;23.10;77.80
814;DHT22;389;48.710;9.392;2022-08-06T07:55:08;23.10;76.90
814;DHT22;389;48.710;9.392;2022-08-06T07:57:38;23.10;77.00
814;DHT22;389;48.710;9.392;2022-08-06T08:00:05;23.10;76.80
814;DHT22;389;48.710;9.392;2022-08-06T08:02:31;23.20;77.30
814;DHT22;389;48.710;9.392;2022-08-06T08:04:57;23.10;76.80
814;DHT22;389;48.710;9.392;2022-08-06T08:07:44;23.10;76.80
814;DHT22;389;48.710;9.392;2022-08-06T08:10:12;23.10;76.60
814;DHT22;389;48.710;9.392;2022-08-06T08:12:40;23.20;76.60
814;DHT22;389;48.710;9.392;2022-08-06T08:15:08;23.10;76.50
814;DHT22;389;48.710;9.392;2022-08-06T08:17:34;23.10;76.10
814;DHT22;389;48.710;9.392;2022-08-06T08:20:05;23.10;75.30
814;DHT22;389;48.710;9.392;2022-08-06T08:22:33;23.00;74.90
814;DHT22;389;48.710;9.392;2022-08-06T08:25:00;23.00;75.50
814;DHT22;389;48.710;9.392;2022-08-06T08:27:26;23.00;76.10
814;DHT22;389;48.710;9.392;2022-08-06T08:29:52;23.00;76.00
814;DHT22;389;48.710;9.392;2022-08-06T08:32:17;23.10;76.30
814;DHT22;389;48.710;9.392;2022-08-06T08:34:43;23.10;75.90
814;DHT22;389;48.710;9.392;2022-08-06T08:37:09;23.10;76.10
814;DHT22;389;48.710;9.392;2022-08-06T08:39:34;23.10;75.80
814;DHT22;389;48.710;9.392;2022-08-06T08:42:07;23.10;75.70
814;DHT22;389;48.710;9.392;2022-08-06T08:44:35;23.10;75.10
814;DHT22;389;48.710;9.392;2022-08-06T08:47:02;23.10;75.10
814;DHT22;389;48.710;9.392;2022-08-06T08:49:45;23.20;76.70
814;DHT22;389;48.710;9.392;2022-08-06T08:52:17;23.20;76.00
814;DHT22;389;48.710;9.392;2022-08-06T08:54:48;23.20;74.80
814;DHT22;389;48.710;9.392;2022-08-06T08:57:15;23.30;75.10
814;DHT22;389;48.710;9.392;2022-08-06T08:59:41;23.40;75.40
814;DHT22;389;48.710;9.392;2022-08-06T09:02:10;23.50;74.30
814;DHT22;389;48.710;9.392;2022-08-06T09:04:36;23.60;73.10
814;DHT22;389;48.710;9.392;2022-08-06T09:07:03;23.70;73.10
814;DHT22;389;48.710;9.392;2022-08-06T09:09:30;24.00;73.40
814;DHT22;389;48.710;9.392;2022-08-06T09:11:58;24.10;71.00
814;DHT22;389;48.710;9.392;2022-08-06T09:14:24;24.10;69.70
814;DHT22;389;48.710;9.392;2022-08-06T09:16:50;24.10;69.80
814;DHT22;389;48.710;9.392;2022-08-06T09:19:16;24.00;69.90
814;DHT22;389;48.710;9.392;2022-08-06T09:21:41;24.10;68.90
814;DHT22;389;48.710;9.392;2022-08-06T09:24:08;24.20;71.00
814;DHT22;389;48.710;9.392;2022-08-06T09:26:34;24.40;70.80
814;DHT22;389;48.710;9.392;2022-08-06T09:28:59;24.50;69.60
814;DHT22;389;48.710;9.392;2022-08-06T09:31:26;24.70;68.50
814;DHT22;389;48.710;9.392;2022-08-06T09:34:03;24.80;67.90
814;DHT22;389;48.710;9.392;2022-08-06T09:36:44;24.90;68.60
814;DHT22;389;48.710;9.392;2022-08-06T09:39:10;25.00;67.60
814;DHT22;389;48.710;9.392;2022-08-06T09:41:46;25.10;67.50
814;DHT22;389;48.710;9.392;2022-08-06T09:44:12;25.20;67.30
814;DHT22;389;48.710;9.392;2022-08-06T09:49:10;25.10;66.00
814;DHT22;389;48.710;9.392;2022-08-06T09:51:36;25.00;65.50
814;DHT22;389;48.710;9.392;2022-08-06T09:54:04;24.90;64.70
814;DHT22;389;48.710;9.392;2022-08-06T09:56:30;25.00;64.80
814;DHT22;389;48.710;9.392;2022-08-06T09:59:02;25.20;64.70
814;DHT22;389;48.710;9.392;2022-08-06T10:01:28;25.40;65.10
814;DHT22;389;48.710;9.392;2022-08-06T10:03:56;25.50;64.40
814;DHT22;389;48.710;9.392;2022-08-06T10:06:23;25.70;63.90
814;DHT22;389;48.710;9.392;2022-08-06T10:09:08;25.80;61.10
814;DHT22;389;48.710;9.392;2022-08-06T10:11:40;25.90;60.60
814;DHT22;389;48.710;9.392;2022-08-06T10:14:27;26.10;62.60
814;DHT22;389;48.710;9.392;2022-08-06T10:19:28;26.50;60.70
814;DHT22;389;48.710;9.392;2022-08-06T10:21:53;26.60;59.60
814;DHT22;389;48.710;9.392;2022-08-06T10:24:20;26.40;59.50
814;DHT22;389;48.710;9.392;2022-08-06T10:26:46;26.30;59.50
814;DHT22;389;48.710;9.392;2022-08-06T10:29:13;26.30;59.70
814;DHT22;389;48.710;9.392;2022-08-06T10:31:39;26.30;59.30
814;DHT22;389;48.710;9.392;2022-08-06T10:34:16;26.40;60.00
814;DHT22;389;48.710;9.392;2022-08-06T10:36:51;26.40;59.70
814;DHT22;389;48.710;9.392;2022-08-06T10:39:21;26.60;60.70
814;DHT22;389;48.710;9.392;2022-08-06T10:41:51;26.80;58.80
814;DHT22;389;48.710;9.392;2022-08-06T10:44:19;26.80;57.80
814;DHT22;389;48.710;9.392;2022-08-06T10:46:46;26.80;57.80
814;DHT22;389;48.710;9.392;2022-08-06T10:49:12;26.80;58.30
814;DHT22;389;48.710;9.392;2022-08-06T10:51:41;26.90;57.70
814;DHT22;389;48.710;9.392;2022-08-06T10:54:06;27.10;58.10
814;DHT22;389;48.710;9.392;2022-08-06T10:56:32;27.10;56.80
814;DHT22;389;48.710;9.392;2022-08-06T10:58:59;27.20;57.40
814;DHT22;389;48.710;9.392;2022-08-06T11:01:47;27.30;57.10
814;DHT22;389;48.710;9.392;2022-08-06T11:07:39;27.40;57.20
814;DHT22;389;48.710;9.392;2022-08-06T11:13:19;27.30;55.70
814;DHT22;389;48.710;9.392;2022-08-06T11:15:45;27.20;55.90
814;DHT22;389;48.710;9.392;2022-08-06T11:18:12;27.30;55.50
814;DHT22;389;48.710;9.392;2022-08-06T11:20:45;27.40;55.70
814;DHT22;389;48.710;9.392;2022-08-06T11:28:06;27.90;54.50
814;DHT22;389;48.710;9.392;2022-08-06T11:30:51;28.20;54.50
814;DHT22;389;48.710;9.392;2022-08-06T11:36:08;28.60;53.90
814;DHT22;389;48.710;9.392;2022-08-06T11:41:31;28.80;53.80
814;DHT22;389;48.710;9.392;2022-08-06T11:44:08;28.70;53.30
814;DHT22;389;48.710;9.392;2022-08-06T11:46:36;28.40;53.40
814;DHT22;389;48.710;9.392;2022-08-06T11:54:25;27.80;53.90
814;DHT22;389;48.710;9.392;2022-08-06T12:02:15;27.40;54.60
814;DHT22;389;48.710;9.392;2022-08-06T12:04:43;27.40;54.90
814;DHT22;389;48.710;9.392;2022-08-06T12:07:23;27.40;54.90
814;DHT22;389;48.710;9.392;2022-08-06T12:12:30;27.20;55.20
814;DHT22;389;48.710;9.392;2022-08-06T12:17:58;27.00;54.30
814;DHT22;389;48.710;9.392;2022-08-06T12:20:43;27.00;54.20
814;DHT22;389;48.710;9.392;2022-08-06T12:23:14;27.00;54.10
814;DHT22;389;48.710;9.392;2022-08-06T12:25:53;27.00;54.40
814;DHT22;389;48.710;9.392;2022-08-06T12:28:19;27.10;54.20
814;DHT22;389;48.710;9.392;2022-08-06T12:30:48;27.20;54.40
814;DHT22;389;48.710;9.392;2022-08-06T12:33:14;27.50;54.50
814;DHT22;389;48.710;9.392;2022-08-06T12:35:57;27.70;53.80
814;DHT22;389;48.710;9.392;2022-08-06T12:38:31;27.80;54.00
814;DHT22;389;48.710;9.392;2022-08-06T12:41:01;27.90;53.40
814;DHT22;389;48.710;9.392;2022-08-06T12:43:28;27.80;53.50
814;DHT22;389;48.710;9.392;2022-08-06T12:45:59;27.70;53.50
814;DHT22;389;48.710;9.392;2022-08-06T12:48:25;27.80;54.00
814;DHT22;389;48.710;9.392;2022-08-06T12:51:04;27.80;53.70
814;DHT22;389;48.710;9.392;2022-08-06T12:53:30;27.90;53.30
814;DHT22;389;48.710;9.392;2022-08-06T12:55:56;27.90;54.10
814;DHT22;389;48.710;9.392;2022-08-06T12:58:30;28.00;54.10
814;DHT22;389;48.710;9.392;2022-08-06T13:00:58;28.00;53.50
814;DHT22;389;48.710;9.392;2022-08-06T13:03:25;28.00;53.40
814;DHT22;389;48.710;9.392;2022-08-06T13:05:55;28.00;53.10
814;DHT22;389;48.710;9.392;2022-08-06T13:08:22;28.00;53.70
814;DHT22;389;48.710;9.392;2022-08-06T13:10:52;28.00;53.20
814;DHT22;389;48.710;9.392;2022-08-06T13:13:19;28.00;53.10
814;DHT22;389;48.710;9.392;2022-08-06T13:16:07;27.90;53.70
814;DHT22;389;48.710;9.392;2022-08-06T13:18:34;27.90;53.20
814;DHT22;389;48.710;9.392;2022-08-06T13:21:01;27.90;54.10
814;DHT22;389;48.710;9.392;2022-08-06T13:23:32;27.80;54.20
814;DHT22;389;48.710;9.392;2022-08-06T13:26:09;27.70;53.60
814;DHT22;389;48.710;9.392;2022-08-06T13:28:35;27.60;53.30
814;DHT22;389;48.710;9.392;2022-08-06T13:31:00;27.60;53.50
814;DHT22;389;48.710;9.392;2022-08-06T13:33:26;27.50;53.60
814;DHT22;389;48.710;9.392;2022-08-06T13:36:04;27.50;54.60
814;DHT22;389;48.710;9.392;2022-08-06T13:38:32;27.50;53.90
814;DHT22;389;48.710;9.392;2022-08-06T13:40:58;27.60;53.60
814;DHT22;389;48.710;9.392;2022-08-06T13:43:38;27.60;53.40
814;DHT22;389;48.710;9.392;2022-08-06T13:48:34;27.70;53.10
814;DHT22;389;48.710;9.392;2022-08-06T13:50:59;27.80;53.30
814;DHT22;389;48.710;9.392;2022-08-06T13:53:25;27.90;52.60
814;DHT22;389;48.710;9.392;2022-08-06T13:55:50;28.00;52.60
814;DHT22;389;48.710;9.392;2022-08-06T13:58:16;28.10;52.40
814;DHT22;389;48.710;9.392;2022-08-06T14:00:42;28.10;52.50
814;DHT22;389;48.710;9.392;2022-08-06T14:03:11;28.00;52.20
814;DHT22;389;48.710;9.392;2022-08-06T14:05:36;27.80;52.80
814;DHT22;389;48.710;9.392;2022-08-06T14:08:02;27.70;52.60
814;DHT22;389;48.710;9.392;2022-08-06T14:10:28;27.60;53.10
814;DHT22;389;48.710;9.392;2022-08-06T14:12:53;27.50;53.30
814;DHT22;389;48.710;9.392;2022-08-06T14:15:37;27.50;53.00
814;DHT22;389;48.710;9.392;2022-08-06T14:18:03;27.50;52.90
814;DHT22;389;48.710;9.392;2022-08-06T14:20:29;27.50;52.90
814;DHT22;389;48.710;9.392;2022-08-06T14:22:55;27.60;52.90
814;DHT22;389;48.710;9.392;2022-08-06T14:25:22;27.60;53.20
814;DHT22;389;48.710;9.392;2022-08-06T14:27:48;27.60;53.40
814;DHT22;389;48.710;9.392;2022-08-06T14:30:14;27.60;52.80
814;DHT22;389;48.710;9.392;2022-08-06T14:32:41;27.70;53.20
814;DHT22;389;48.710;9.392;2022-08-06T14:35:08;27.80;52.70
814;DHT22;389;48.710;9.392;2022-08-06T14:37:34;28.00;52.40
814;DHT22;389;48.710;9.392;2022-08-06T14:40:03;28.20;52.20
814;DHT22;389;48.710;9.392;2022-08-06T14:42:29;28.50;52.00
814;DHT22;389;48.710;9.392;2022-08-06T14:45:14;28.60;51.90
814;DHT22;389;48.710;9.392;2022-08-06T14:47:39;28.90;51.60
814;DHT22;389;48.710;9.392;2022-08-06T14:50:05;29.10;51.20
814;DHT22;389;48.710;9.392;2022-08-06T14:52:31;29.30;50.60
814;DHT22;389;48.710;9.392;2022-08-06T14:54:56;29.50;50.30
814;DHT22;389;48.710;9.392;2022-08-06T14:57:24;29.50;50.40
814;DHT22;389;48.710;9.392;2022-08-06T14:59:50;29.50;50.20
814;DHT22;389;48.710;9.392;2022-08-06T15:02:16;29.50;49.80
814;DHT22;389;48.710;9.392;2022-08-06T15:04:41;29.40;49.70
814;DHT22;389;48.710;9.392;2022-08-06T15:07:08;29.30;49.60
814;DHT22;389;48.710;9.392;2022-08-06T15:09:34;29.30;49.80
814;DHT22;389;48.710;9.392;2022-08-06T15:12:00;29.30;50.40
814;DHT22;389;48.710;9.392;2022-08-06T15:14:26;29.40;50.10
814;DHT22;389;48.710;9.392;2022-08-06T15:16:53;29.50;50.00
814;DHT22;389;48.710;9.392;2022-08-06T15:19:19;29.50;49.70
814;DHT22;389;48.710;9.392;2022-08-06T15:21:45;29.70;49.90
814;DHT22;389;48.710;9.392;2022-08-06T15:24:11;29.60;49.50
814;DHT22;389;48.710;9.392;2022-08-06T15:26:36;29.40;49.30
814;DHT22;389;48.710;9.392;2022-08-06T15:29:02;29.20;49.50
814;DHT22;389;48.710;9.392;2022-08-06T15:31:28;29.00;49.60
814;DHT22;389;48.710;9.392;2022-08-06T15:33:54;28.80;50.30
814;DHT22;389;48.710;9.392;2022-08-06T15:36:20;28.70;50.50
814;DHT22;389;48.710;9.392;2022-08-06T15:38:45;28.60;50.50
814;DHT22;389;48.710;9.392;2022-08-06T15:41:11;28.50;50.30
814;DHT22;389;48.710;9.392;2022-08-06T15:43:37;28.50;50.60
814;DHT22;389;48.710;9.392;2022-08-06T15:46:02;28.40;50.10
814;DHT22;389;48.710;9.392;2022-08-06T15:48:29;28.30;50.10
814;DHT22;389;48.710;9.392;2022-08-06T15:50:56;28.30;50.60
814;DHT22;389;48.710;9.392;2022-08-06T15:53:22;28.30;50.30
814;DHT22;389;48.710;9.392;2022-08-06T15:55:48;28.30;50.20
814;DHT22;389;48.710;9.392;2022-08-06T15:58:14;28.30;50.30
814;DHT22;389;48.710;9.392;2022-08-06T16:00:41;28.30;50.50
814;DHT22;389;48.710;9.392;2022-08-06T16:03:08;28.40;50.50
814;DHT22;389;48.710;9.392;2022-08-06T16:05:35;28.40;50.30
814;DHT22;389;48.710;9.392;2022-08-06T16:08:02;28.50;50.10
814;DHT22;389;48.710;9.392;2022-08-06T16:10:27;28.50;50.20
814;DHT22;389;48.710;9.392;2022-08-06T16:12:54;28.50;50.20
814;DHT22;389;48.710;9.392;2022-08-06T16:15:20;28.60;50.80
814;DHT22;389;48.710;9.392;2022-08-06T16:17:46;28.70;49.80
814;DHT22;389;48.710;9.392;2022-08-06T16:20:14;28.80;49.40
814;DHT22;389;48.710;9.392;2022-08-06T16:22:40;29.00;49.60
814;DHT22;389;48.710;9.392;2022-08-06T16:25:06;29.10;49.80
814;DHT22;389;48.710;9.392;2022-08-06T16:27:31;29.20;49.50
814;DHT22;389;48.710;9.392;2022-08-06T16:29:57;29.20;49.40
814;DHT22;389;48.710;9.392;2022-08-06T16:32:23;29.10;48.90
814;DHT22;389;48.710;9.392;2022-08-06T16:34:48;29.00;49.20
814;DHT22;389;48.710;9.392;2022-08-06T16:37:15;28.90;49.60
814;DHT22;389;48.710;9.392;2022-08-06T16:39:40;28.90;49.50
814;DHT22;389;48.710;9.392;2022-08-06T16:42:07;28.90;49.40
814;DHT22;389;48.710;9.392;2022-08-06T16:44:37;28.70;48.80
814;DHT22;389;48.710;9.392;2022-08-06T16:47:03;28.60;48.90
814;DHT22;389;48.710;9.392;2022-08-06T16:49:29;28.50;49.30
814;DHT22;389;48.710;9.392;2022-08-06T16:51:55;28.50;49.30
814;DHT22;389;48.710;9.392;2022-08-06T16:54:21;28.40;49.50
814;DHT22;389;48.710;9.392;2022-08-06T16:56:46;28.30;49.20
814;DHT22;389;48.710;9.392;2022-08-06T16:59:12;28.30;49.80
814;DHT22;389;48.710;9.392;2022-08-06T17:01:38;28.20;49.70
814;DHT22;389;48.710;9.392;2022-08-06T17:04:05;28.20;50.10
814;DHT22;389;48.710;9.392;2022-08-06T17:06:32;28.20;50.10
814;DHT22;389;48.710;9.392;2022-08-06T17:08:59;28.10;50.00
814;DHT22;389;48.710;9.392;2022-08-06T17:11:25;28.10;50.50
814;DHT22;389;48.710;9.392;2022-08-06T17:13:50;28.10;49.70
814;DHT22;389;48.710;9.392;2022-08-06T17:16:16;28.00;49.20
814;DHT22;389;48.710;9.392;2022-08-06T17:18:42;28.00;49.20
814;DHT22;389;48.710;9.392;2022-08-06T17:21:07;28.10;49.40
814;DHT22;389;48.710;9.392;2022-08-06T17:23:33;28.10;49.70
814;DHT22;389;48.710;9.392;2022-08-06T17:25:58;28.00;50.10
814;DHT22;389;48.710;9.392;2022-08-06T17:28:24;28.00;49.50
814;DHT22;389;48.710;9.392;2022-08-06T17:30:50;28.00;49.20
814;DHT22;389;48.710;9.392;2022-08-06T17:33:15;27.90;48.80
814;DHT22;389;48.710;9.392;2022-08-06T17:35:41;27.80;48.80
814;DHT22;389;48.710;9.392;2022-08-06T17:38:08;27.60;48.70
814;DHT22;389;48.710;9.392;2022-08-06T17:40:33;27.50;49.00
814;DHT22;389;48.710;9.392;2022-08-06T17:43:01;27.40;49.00
814;DHT22;389;48.710;9.392;2022-08-06T17:45:27;27.30;49.20
814;DHT22;389;48.710;9.392;2022-08-06T17:47:53;27.20;49.10
814;DHT22;389;48.710;9.392;2022-08-06T17:50:19;27.10;49.50
814;DHT22;389;48.710;9.392;2022-08-06T17:52:44;27.10;49.90
814;DHT22;389;48.710;9.392;2022-08-06T17:55:10;27.00;50.10
814;DHT22;389;48.710;9.392;2022-08-06T17:57:36;26.90;50.40
814;DHT22;389;48.710;9.392;2022-08-06T18:00:03;26.80;50.40
814;DHT22;389;48.710;9.392;2022-08-06T18:02:29;26.80;50.70
814;DHT22;389;48.710;9.392;2022-08-06T18:04:54;26.70;50.80
814;DHT22;389;48.710;9.392;2022-08-06T18:07:20;26.60;50.70
814;DHT22;389;48.710;9.392;2022-08-06T18:09:46;26.60;50.40
814;DHT22;389;48.710;9.392;2022-08-06T18:12:31;26.70;50.50
814;DHT22;389;48.710;9.392;2022-08-06T18:14:58;26.90;50.20
814;DHT22;389;48.710;9.392;2022-08-06T18:17:23;27.10;49.80
814;DHT22;389;48.710;9.392;2022-08-06T18:19:49;27.30;49.70
814;DHT22;389;48.710;9.392;2022-08-06T18:22:15;27.50;49.50
814;DHT22;389;48.710;9.392;2022-08-06T18:24:40;27.60;49.00